Time;durP1;ratioP1;P1;durP2;ratioP2;P2;SDS_P1;SDS_P2;PMS_P1;PMS_P2;Temp;Humidity;BMP_temperature;BMP_pressure;BME280_temperature;BME280_humidity;BME280_pressure;Samples;Min_cycle;Max_cycle;Signal;HPM_P1;HPM_P2
2021/05/12 05:31:54;;;;;;;9.13;2.80;;;;;;;17.31;38.19;99686.89;1711388;80;25693;-61
2021/05/12 05:34:21;;;;;;;5.55;2.75;;;;;;;17.46;38.28;99687.30;1714387;83;25743;-62
2021/05/12 05:36:47;;;;;;;8.60;2.72;;;;;;;17.63;38.16;99675.60;1721681;83;27408;-62
2021/05/12 05:39:13;;;;;;;7.20;2.85;;;;;;;17.80;38.03;99698.27;1721779;83;25768;-62
2021/05/12 05:41:41;;;;;;;4.90;2.42;;;;;;;17.96;37.69;99685.00;1713761;82;25431;-61
2021/05/12 05:44:08;;;;;;;5.50;2.72;;;;;;;18.13;37.54;99693.98;1714410;83;26385;-61
2021/05/12 05:46:35;;;;;;;8.58;3.15;;;;;;;18.29;36.78;99686.34;1714767;83;25144;-62
2021/05/12 05:49:04;;;;;;;7.58;3.20;;;;;;;18.42;36.40;99678.66;1714737;83;27322;-63
2021/05/12 05:51:31;;;;;;;7.22;2.55;;;;;;;18.55;36.34;99682.48;1707879;82;26038;-62
2021/05/12 05:53:58;;;;;;;4.78;2.17;;;;;;;18.66;36.06;99684.70;1714444;83;25437;-63
2021/05/12 05:56:26;;;;;;;7.08;2.47;;;;;;;18.82;36.13;99681.16;1724134;81;25812;-62
2021/05/12 05:58:53;;;;;;;5.08;2.45;;;;;;;19.01;35.77;99688.34;1700905;84;25505;-62
2021/05/12 06:01:19;;;;;;;5.25;2.72;;;;;;;19.16;35.42;99688.45;1695490;83;27379;-62
2021/05/12 06:03:46;;;;;;;5.78;2.70;;;;;;;19.29;35.30;99693.83;1713198;83;25560;-62
2021/05/12 06:06:12;;;;;;;5.78;3.22;;;;;;;19.45;35.63;99687.26;1714480;83;25507;-62
2021/05/12 06:08:39;;;;;;;5.33;2.42;;;;;;;19.60;35.72;99688.30;1714283;83;26252;-62
2021/05/12 06:11:08;;;;;;;7.03;2.55;;;;;;;19.75;34.92;99693.30;1691452;83;25579;-62
2021/05/12 06:13:33;;;;;;;10.43;2.72;;;;;;;19.79;34.94;99690.58;1714152;83;27342;-62
2021/05/12 06:16:02;;;;;;;8.13;2.42;;;;;;;19.90;34.78;99689.23;1721780;83;25589;-62
2021/05/12 06:18:27;;;;;;;5.03;3.42;;;;;;;19.98;34.94;99699.06;1714287;83;25538;-62
2021/05/12 06:20:54;;;;;;;8.93;2.35;;;;;;;20.15;34.87;99682.45;1688728;83;25720;-62
2021/05/12 06:23:20;;;;;;;12.03;2.67;;;;;;;20.38;35.15;99676.62;1712001;83;25567;-61
2021/05/12 06:25:47;;;;;;;5.85;2.37;;;;;;;20.61;34.31;99682.32;1711818;82;27410;-62
2021/05/12 06:28:16;;;;;;;7.30;2.75;;;;;;;20.78;34.33;99682.94;1714463;83;25769;-62
2021/05/12 06:30:48;;;;;;;5.47;2.30;;;;;;;20.95;34.37;99685.48;1713667;83;25530;-62
2021/05/12 06:33:10;;;;;;;6.13;2.37;;;;;;;21.18;33.83;99678.19;1719170;83;25666;-61
2021/05/12 06:35:37;;;;;;;4.40;2.45;;;;;;;21.29;33.41;99680.13;1719381;83;25578;-62
2021/05/12 06:38:03;;;;;;;4.42;2.30;;;;;;;21.42;33.47;99668.30;1720284;82;28409;-60
2021/05/12 06:40:29;;;;;;;5.50;2.33;;;;;;;21.57;34.16;99667.70;1714376;83;25568;-61
2021/05/12 06:43:01;;;;;;;5.58;2.50;;;;;;;21.85;34.13;99663.84;1706888;84;25564;-62
2021/05/12 06:45:27;;;;;;;7.03;2.10;;;;;;;22.13;33.44;99661.51;1707516;82;25657;-62
2021/05/12 06:47:54;;;;;;;9.68;2.75;;;;;;;22.38;33.08;99652.52;1712486;82;25516;-62
2021/05/12 06:50:23;;;;;;;4.75;2.00;;;;;;;22.51;32.37;99662.47;1733360;82;27358;-63
2021/05/12 06:52:54;;;;;;;3.92;2.42;;;;;;;22.61;32.45;99655.88;1724751;82;25689;-62
2021/05/12 06:55:21;;;;;;;4.67;2.08;;;;;;;22.84;32.53;99650.56;1726988;82;25461;-62
2021/05/12 06:57:47;;;;;;;2.40;2.00;;;;;;;23.12;32.28;99652.88;1724441;81;25593;-63
2021/05/12 07:00:15;;;;;;;6.53;2.50;;;;;;;23.30;30.96;99671.40;1704335;82;25134;-63
2021/05/12 07:02:42;;;;;;;4.33;2.02;;;;;;;23.36;31.39;99651.06;1729946;82;27329;-63
2021/05/12 07:05:14;;;;;;;6.47;2.50;;;;;;;23.52;30.96;99653.23;1724318;82;25603;-62
2021/05/12 07:07:38;;;;;;;;;;;;;;;23.64;30.66;99649.14;1729557;82;25827;-63
2021/05/12 07:10:05;;;;;;;4.03;2.12;;;;;;;23.74;30.92;99657.89;1717138;83;25677;-63
2021/05/12 07:12:32;;;;;;;3.52;1.90;;;;;;;23.80;30.54;99634.73;1716342;83;25374;-62
2021/05/12 07:14:59;;;;;;;8.03;2.58;;;;;;;23.96;30.32;99650.13;1705684;84;27333;-62
2021/05/12 07:17:25;;;;;;;4.92;2.15;;;;;;;23.95;30.17;99644.41;1706725;84;25468;-62
2021/05/12 07:19:52;;;;;;;6.72;2.77;;;;;;;24.12;30.93;99644.58;1707308;84;25561;-62
2021/05/12 07:22:18;;;;;;;4.10;1.98;;;;;;;24.30;30.84;99647.86;1707323;83;25672;-63
2021/05/12 07:24:44;;;;;;;9.43;2.90;;;;;;;24.45;29.69;99638.75;1712466;83;25502;-63
2021/05/12 07:27:11;;;;;;;10.43;2.60;;;;;;;24.56;29.96;99643.52;1712428;83;27334;-62
2021/05/12 07:29:38;;;;;;;10.48;2.40;;;;;;;24.63;29.42;99637.09;1712414;83;25522;-62
2021/05/12 07:32:05;;;;;;;4.17;1.87;;;;;;;24.82;29.76;99637.56;1712388;82;25502;-62
2021/05/12 07:34:32;;;;;;;3.10;2.05;;;;;;;25.11;29.92;99637.81;1712463;83;25707;-63
2021/05/12 07:36:58;;;;;;;6.47;1.80;;;;;;;25.40;29.82;99651.91;1712551;83;25528;-63
2021/05/12 07:39:26;;;;;;;3.52;2.00;;;;;;;25.47;28.74;99640.70;1712360;83;27368;-63
2021/05/12 07:41:55;;;;;;;5.47;2.23;;;;;;;25.60;28.96;99643.59;1707570;83;25298;-63
2021/05/12 07:44:21;;;;;;;4.30;1.80;;;;;;;25.80;28.82;99633.88;1712724;83;25573;-63
2021/05/12 07:46:49;;;;;;;4.97;2.10;;;;;;;25.93;28.73;99642.28;1712429;83;25704;-63
2021/05/12 07:49:15;;;;;;;6.25;2.72;;;;;;;26.05;27.82;99631.17;1686340;83;25501;-63
2021/05/12 07:51:42;;;;;;;4.60;1.65;;;;;;;26.08;27.64;99621.41;1712499;83;27346;-63
2021/05/12 07:54:08;;;;;;;2.87;1.75;;;;;;;26.24;27.68;99612.32;1707325;83;25510;-64
2021/05/12 07:56:35;;;;;;;6.83;2.10;;;;;;;26.38;28.15;99637.52;1712514;83;25593;-63
2021/05/12 07:59:01;;;;;;;5.42;2.02;;;;;;;26.68;28.32;99624.55;1712325;83;25759;-62
2021/05/12 08:01:31;;;;;;;6.25;1.70;;;;;;;26.91;26.92;99629.08;1712017;83;25656;-71
2021/05/12 08:03:56;;;;;;;7.57;1.83;;;;;;;26.94;27.22;99621.28;1712183;83;27497;-71
2021/05/12 08:06:22;;;;;;;5.72;1.75;;;;;;;26.98;26.05;99622.56;1711451;83;25608;-67
2021/05/12 08:08:49;;;;;;;4.17;1.45;;;;;;;27.02;26.68;99612.94;1706566;82;25528;-68
2021/05/12 08:11:16;;;;;;;4.58;1.80;;;;;;;27.17;27.28;99611.91;1683698;84;26252;-69
2021/05/12 08:13:42;;;;;;;5.35;1.77;;;;;;;27.48;26.64;99610.69;1719338;83;25513;-69
2021/05/12 08:16:08;;;;;;;8.95;2.40;;;;;;;27.35;25.22;99614.22;1701931;84;27126;-63
2021/05/12 08:18:35;;;;;;;3.75;1.37;;;;;;;27.26;25.92;99619.63;1720403;82;25558;-63
2021/05/12 08:21:02;;;;;;;11.20;2.02;;;;;;;27.47;26.72;99614.08;1719716;83;25479;-64
2021/05/12 08:23:29;;;;;;;7.50;2.00;;;;;;;27.62;26.12;99614.45;1715716;83;26174;-63
2021/05/12 08:25:55;;;;;;;7.62;1.45;;;;;;;27.91;26.48;99619.14;1719803;83;25561;-64
2021/05/12 08:28:22;;;;;;;2.92;1.45;;;;;;;28.13;24.86;99620.66;1707343;84;27929;-65
2021/05/12 08:30:49;;;;;;;3.47;1.60;;;;;;;28.18;25.23;99620.70;1719609;83;25551;-64
2021/05/12 08:33:16;;;;;;;4.62;1.72;;;;;;;28.40;23.90;99616.61;1727243;82;25464;-64
2021/05/12 08:35:45;;;;;;;7.08;1.60;;;;;;;28.55;24.66;99619.11;1735141;82;25817;-65
2021/05/12 08:38:18;;;;;;;5.97;1.70;;;;;;;28.61;24.61;99618.71;1721552;82;25675;-64
2021/05/12 08:40:46;;;;;;;7.53;1.50;;;;;;;28.39;23.72;99621.40;1725442;82;27886;-64
2021/05/12 08:43:14;;;;;;;11.85;1.92;;;;;;;28.15;24.58;99609.88;1726024;82;25408;-64
2021/05/12 08:45:44;;;;;;;3.70;1.40;;;;;;;28.36;24.76;99609.78;1731780;82;25458;-64
2021/05/12 08:48:16;;;;;;;3.98;1.50;;;;;;;28.52;25.09;99600.53;1726912;82;26360;-64
2021/05/12 08:50:44;;;;;;;4.50;1.52;;;;;;;28.75;24.09;99595.80;1726044;82;25510;-64
2021/05/12 08:53:11;;;;;;;4.03;1.70;;;;;;;28.69;24.76;99604.73;1726063;82;27291;-64
2021/05/12 08:55:38;;;;;;;4.80;1.52;;;;;;;28.85;23.94;99598.20;1725396;82;25491;-64
2021/05/12 08:58:04;;;;;;;4.15;1.47;;;;;;;28.77;24.04;99594.11;1731411;82;25620;-64
2021/05/12 09:00:31;;;;;;;5.25;1.67;;;;;;;28.98;24.86;99589.02;1721038;82;25589;-64
2021/05/12 09:03:00;;;;;;;5.28;1.45;;;;;;;29.46;24.12;99604.20;1731532;82;25479;-63
2021/05/12 09:05:28;;;;;;;5.30;1.37;;;;;;;29.61;23.09;99606.00;1723370;82;27304;-64
2021/05/12 09:07:55;;;;;;;7.58;1.50;;;;;;;29.50;23.49;99597.89;1727092;82;25547;-64
2021/05/12 09:10:23;;;;;;;5.05;1.45;;;;;;;29.33;23.31;99600.88;1706145;82;25849;-64
2021/05/12 09:12:53;;;;;;;3.72;2.00;;;;;;;29.46;23.19;99596.64;1727155;82;25653;-64
2021/05/12 09:15:22;;;;;;;8.05;1.70;;;;;;;29.62;23.17;99590.82;1727443;82;25462;-63
2021/05/12 09:17:51;;;;;;;4.10;1.60;;;;;;;29.69;23.36;99602.31;1707759;82;27474;-64
2021/05/12 09:20:31;;;;;;;4.78;1.50;;;;;;;29.89;22.55;99603.98;1722075;82;25573;-63
2021/05/12 09:23:08;;;;;;;5.08;2.08;;;;;;;29.91;23.55;99593.14;1701861;84;25463;-62
2021/05/12 09:25:37;;;;;;;7.08;1.70;;;;;;;29.80;23.67;99586.61;1710331;83;25619;-63
2021/05/12 09:28:18;;;;;;;7.10;1.80;;;;;;;29.88;23.41;99587.09;1721897;82;25445;-62
2021/05/12 09:30:50;;;;;;;5.20;2.00;;;;;;;29.94;23.98;99590.84;1720601;82;27843;-61
2021/05/12 09:33:30;;;;;;;6.72;1.60;;;;;;;29.99;23.93;99587.45;1714302;82;25467;-60
2021/05/12 09:35:57;;;;;;;7.78;1.70;;;;;;;29.98;23.82;99590.86;1720021;82;25501;-60
2021/05/12 09:38:30;;;;;;;3.92;1.70;;;;;;;29.85;23.37;99578.25;1759518;81;25696;-63
2021/05/12 09:41:12;;;;;;;7.47;1.60;;;;;;;29.77;23.88;99567.39;1753999;81;25795;-58
2021/05/12 09:47:32;;;;;;;6.03;1.40;;;;;;;29.99;23.53;99571.48;1749033;81;25532;-61
2021/05/12 09:49:58;;;;;;;8.58;2.00;;;;;;;30.05;23.25;99559.73;1758704;81;25501;-61
2021/05/12 09:52:29;;;;;;;5.45;1.47;;;;;;;30.08;23.46;99572.13;1754123;81;26217;-64
2021/05/12 09:55:05;;;;;;;6.55;1.30;;;;;;;30.25;23.75;99562.10;1746580;81;25553;-63
2021/05/12 09:57:31;;;;;;;6.58;1.98;;;;;;;30.23;22.82;99577.13;1756584;81;27311;-64
2021/05/12 09:59:58;;;;;;;7.95;1.80;;;;;;;30.21;23.24;99583.80;1759921;81;25454;-68
2021/05/12 10:02:24;;;;;;;4.30;1.95;;;;;;;30.14;23.44;99566.11;1756004;81;25553;-64
2021/05/12 10:04:51;;;;;;;7.62;1.50;;;;;;;30.03;23.52;99575.52;1754607;81;25711;-71
2021/05/12 10:07:23;;;;;;;4.30;1.52;;;;;;;30.01;24.18;99569.64;1758391;81;25531;-63
2021/05/12 10:09:54;;;;;;;6.47;1.37;;;;;;;29.91;23.22;99577.81;1761663;81;28027;-64
2021/05/12 10:12:25;;;;;;;9.95;2.20;;;;;;;29.87;23.23;99575.17;1757617;81;25458;-63
2021/05/12 10:14:56;;;;;;;3.40;1.65;;;;;;;29.66;22.47;99586.53;1757766;81;25494;-65
2021/05/12 10:17:24;;;;;;;4.65;1.72;;;;;;;29.44;23.33;99571.25;1749856;81;25881;-62
2021/05/12 10:19:51;;;;;;;11.25;1.60;;;;;;;29.32;23.22;99567.92;1757992;81;25535;-65
2021/05/12 10:22:20;;;;;;;3.92;1.30;;;;;;;29.34;24.01;99568.27;1760610;81;27342;-63
2021/05/12 10:24:48;;;;;;;4.40;1.55;;;;;;;29.51;23.61;99568.78;1761271;81;25522;-65
2021/05/12 10:27:17;;;;;;;;;;;;;;;29.51;23.86;99567.39;1755656;81;25449;-66
2021/05/12 10:29:54;;;;;;;4.72;1.65;;;;;;;29.65;24.00;99568.25;1759765;80;26263;-59
2021/05/12 10:32:34;;;;;;;6.08;1.30;;;;;;;29.59;22.96;99570.86;1756987;81;25526;-59
2021/05/12 10:35:13;;;;;;;6.60;1.50;;;;;;;29.29;23.08;99560.50;1756952;81;27965;-58
2021/05/12 10:37:44;;;;;;;;;;;;;;;29.18;23.44;99558.09;1756200;81;25509;-57
2021/05/12 10:40:40;;;;;;;6.92;1.57;;;;;;;29.13;23.54;99553.86;1761689;81;25545;-59
2021/05/12 10:45:54;;;;;;;4.55;1.42;;;;;;;29.23;24.23;99549.16;1725869;82;25592;-58
2021/05/12 10:48:44;;;;;;;6.03;2.08;;;;;;;29.34;23.91;99555.11;1708254;83;27302;-58
2021/05/12 10:51:27;;;;;;;3.77;1.70;;;;;;;29.40;24.19;99553.27;1717977;82;25728;-57
2021/05/12 10:53:55;;;;;;;4.20;1.60;;;;;;;29.50;23.31;99558.27;1721501;82;25894;-57
2021/05/12 10:56:41;;;;;;;3.58;1.40;;;;;;;29.38;23.80;99558.52;1709001;83;26210;-60
2021/05/12 10:59:12;;;;;;;9.18;1.80;;;;;;;29.43;23.66;99552.36;1709116;83;25553;-58
2021/05/12 11:01:49;;;;;;;3.22;1.45;;;;;;;29.40;23.47;99549.71;1718960;82;27373;-58
2021/05/12 11:04:18;;;;;;;6.37;1.85;;;;;;;29.41;23.56;99543.69;1725860;82;25561;-58
2021/05/12 11:06:53;;;;;;;6.40;1.67;;;;;;;29.47;23.92;99535.50;1712595;82;25525;-58
2021/05/12 11:09:22;;;;;;;5.70;1.55;;;;;;;29.55;23.67;99549.94;1716035;82;25603;-59
2021/05/12 11:11:54;;;;;;;3.47;1.40;;;;;;;29.58;23.26;99536.50;1723511;82;25605;-58
2021/05/12 11:14:31;;;;;;;8.03;1.87;;;;;;;29.61;23.12;99542.55;1714301;82;27417;-58
2021/05/12 11:17:10;;;;;;;5.75;1.55;;;;;;;29.58;23.36;99548.41;1714858;82;25545;-66
2021/05/12 11:19:49;;;;;;;9.40;1.82;;;;;;;29.55;23.82;99535.39;1708507;82;25541;-60
2021/05/12 11:25:27;;;;;;;5.90;1.77;;;;;;;29.36;23.30;99530.36;1712048;82;33400;-64
2021/05/12 11:33:32;;;;;;;6.15;1.92;;;;;;;29.36;22.91;99542.12;1717695;82;25542;-63
2021/05/12 11:36:13;;;;;;;7.65;2.37;;;;;;;29.40;23.21;99533.77;1704398;84;26274;-62
2021/05/12 11:38:38;;;;;;;;;;;;;;;29.51;22.86;99532.57;1707087;84;25446;-65
2021/05/12 11:41:16;;;;;;;6.22;1.65;;;;;;;29.41;22.53;99528.99;1704854;83;27324;-63
2021/05/12 11:43:53;;;;;;;7.30;1.87;;;;;;;29.45;22.51;99526.83;1700634;82;25466;-63
2021/05/12 11:46:27;;;;;;;10.72;2.92;;;;;;;29.49;22.21;99522.52;1753842;81;25556;-63
2021/05/12 11:49:04;;;;;;;7.83;2.62;;;;;;;29.54;22.37;99508.78;1754576;81;25643;-64
2021/05/12 11:51:37;;;;;;;4.87;1.62;;;;;;;29.77;23.27;99524.20;1743831;81;25871;-64
2021/05/12 11:54:12;;;;;;;12.37;2.30;;;;;;;29.84;22.94;99498.05;1751823;80;27342;-63
2021/05/12 11:56:45;;;;;;;12.85;2.00;;;;;;;30.01;23.17;99497.16;1708571;81;25872;-64
2021/05/12 11:59:23;;;;;;;5.72;2.27;;;;;;;30.23;22.45;99487.89;1754024;81;25595;-63
2021/05/12 12:01:49;;;;;;;5.17;1.80;;;;;;;30.18;21.87;99506.01;1744968;81;25615;-63
2021/05/12 12:04:22;;;;;;;;;;;;;;;29.99;21.86;99509.39;1748480;81;25567;-62
2021/05/12 12:06:47;;;;;;;6.53;2.00;;;;;;;29.93;21.54;99504.26;1749167;81;28053;-68
2021/05/12 12:09:16;;;;;;;5.08;1.98;;;;;;;29.69;21.96;99512.38;1743828;81;25539;-62
2021/05/12 12:11:43;;;;;;;;;;;;;;;29.60;22.41;99513.13;1753415;81;25511;-61
2021/05/12 12:14:10;;;;;;;7.72;2.75;;;;;;;29.63;22.24;99520.57;1751697;81;25776;-66
2021/05/12 12:16:40;;;;;;;6.87;1.90;;;;;;;29.75;22.35;99502.19;1750696;81;25549;-58
2021/05/12 12:19:16;;;;;;;6.95;2.00;;;;;;;29.99;21.68;99510.16;1747504;81;27032;-58
2021/05/12 12:21:46;;;;;;;9.10;2.00;;;;;;;30.21;21.51;99489.75;1743127;81;25591;-58
2021/05/12 12:24:19;;;;;;;4.33;1.92;;;;;;;30.26;21.10;99493.31;1754774;81;25404;-58
2021/05/12 12:26:55;;;;;;;3.33;1.80;;;;;;;30.29;21.52;99494.39;1743933;81;25685;-58
2021/05/12 12:29:29;;;;;;;4.37;1.92;;;;;;;30.22;21.17;99491.28;1723839;81;25453;-58
2021/05/12 12:32:02;;;;;;;7.10;2.27;;;;;;;30.31;21.33;99469.63;1724535;81;27323;-58
2021/05/12 12:34:37;;;;;;;8.20;2.10;;;;;;;30.50;22.27;99485.76;1744730;81;25784;-58
2021/05/12 12:37:15;;;;;;;3.42;2.10;;;;;;;30.96;21.63;99480.76;1751826;81;25456;-58
2021/05/12 12:40:00;;;;;;;3.15;1.67;;;;;;;31.08;20.34;99486.14;1750498;81;26443;-63
2021/05/12 12:42:42;;;;;;;8.10;2.17;;;;;;;30.90;20.94;99484.16;1752863;81;25371;-60
2021/05/12 12:45:17;;;;;;;4.30;2.10;;;;;;;30.70;21.37;99490.86;1753753;81;27906;-61
2021/05/12 12:47:54;;;;;;;5.05;2.10;;;;;;;30.29;21.47;99486.02;1761693;81;25605;-61
2021/05/12 12:50:22;;;;;;;7.83;2.30;;;;;;;30.00;22.44;99495.59;1756218;81;25361;-65
2021/05/12 12:52:49;;;;;;;5.67;2.60;;;;;;;29.77;22.51;99484.41;1761877;81;25685;-61
2021/05/12 12:55:23;;;;;;;4.95;2.58;;;;;;;29.63;22.90;99474.60;1757722;81;25542;-62
2021/05/12 12:57:56;;;;;;;2.83;2.22;;;;;;;29.55;22.82;99474.09;1751728;81;27866;-61
2021/05/12 13:00:45;;;;;;;5.97;2.55;;;;;;;29.51;22.96;99481.84;1757519;81;25521;-62
2021/05/12 13:03:21;;;;;;;7.10;2.40;;;;;;;29.41;22.33;99472.66;1754382;81;25440;-61
2021/05/12 13:05:59;;;;;;;7.87;2.55;;;;;;;29.49;22.88;99470.98;1751899;81;25660;-61
2021/05/12 13:08:37;;;;;;;4.33;2.37;;;;;;;29.59;22.40;99482.31;1751408;81;25475;-61
2021/05/12 13:11:11;;;;;;;2.85;2.40;;;;;;;29.62;22.88;99471.64;1754607;81;25509;-61
2021/05/12 13:13:47;;;;;;;4.30;2.42;;;;;;;29.73;23.25;99470.60;1761019;81;25460;-61
2021/05/12 13:16:32;;;;;;;8.95;2.40;;;;;;;29.85;22.85;99466.17;1757779;81;25529;-61
2021/05/12 13:19:07;;;;;;;5.47;2.87;;;;;;;30.02;23.06;99465.86;1757056;81;25617;-61
2021/05/12 13:21:38;;;;;;;3.95;2.60;;;;;;;30.06;22.35;99465.88;1755454;81;25448;-61
2021/05/12 13:24:09;;;;;;;3.58;2.15;;;;;;;30.21;21.68;99493.17;1750710;81;28030;-60
2021/05/12 13:26:42;;;;;;;8.93;3.30;;;;;;;30.26;21.53;99465.43;1759678;81;25551;-60
2021/05/12 13:29:16;;;;;;;6.85;2.58;;;;;;;30.23;21.69;99483.72;1752807;81;25472;-61
2021/05/12 13:31:44;;;;;;;7.22;2.33;;;;;;;30.05;21.42;99460.77;1759343;81;25634;-63
2021/05/12 13:34:17;;;;;;;5.20;2.62;;;;;;;29.88;21.45;99470.03;1754878;81;25478;-62
2021/05/12 13:36:47;;;;;;;10.35;2.60;;;;;;;29.72;21.70;99463.47;1755293;81;28377;-63
2021/05/12 13:39:15;;;;;;;7.45;2.67;;;;;;;29.64;21.86;99473.34;1754553;81;25489;-62
2021/05/12 13:41:42;;;;;;;4.53;2.80;;;;;;;29.55;22.36;99455.99;1749426;81;25492;-63
2021/05/12 13:44:11;;;;;;;4.33;3.12;;;;;;;29.50;22.38;99460.77;1752539;81;26266;-63
2021/05/12 13:46:37;;;;;;;4.75;2.17;;;;;;;29.29;22.03;99463.03;1752630;81;25373;-64
2021/05/12 13:49:04;;;;;;;7.12;2.90;;;;;;;29.20;22.63;99464.55;1753967;81;28050;-62
2021/05/12 13:51:35;;;;;;;6.35;3.52;;;;;;;29.24;23.24;99447.07;1751276;81;25486;-62
2021/05/12 13:54:12;;;;;;;8.05;3.17;;;;;;;29.20;22.59;99445.05;1744239;81;25501;-62
2021/05/12 13:56:35;;;;;;;10.78;3.72;;;;;;;29.15;23.25;99451.78;1747303;81;26174;-62
2021/05/12 13:59:13;;;;;;;5.90;3.25;;;;;;;29.09;22.57;99455.79;1753082;81;25460;-62
2021/05/12 14:04:02;;;;;;;7.42;2.90;;;;;;;28.75;23.21;99450.50;1717672;82;25470;-60
2021/05/12 14:06:31;;;;;;;6.40;3.22;;;;;;;28.74;23.68;99442.02;1724195;82;25579;-62
2021/05/12 14:09:08;;;;;;;;;;;;;;;28.74;23.81;99437.84;1727127;82;25591;-61
2021/05/12 14:11:27;;;;;;;9.80;3.37;;;;;;;28.81;23.06;99432.59;1729090;82;25530;-63
2021/05/12 14:14:03;;;;;;;11.65;3.50;;;;;;;28.77;23.81;99442.47;1704306;84;27361;-62
2021/05/12 14:16:36;;;;;;;4.97;3.67;;;;;;;28.68;23.55;99438.25;1722948;82;25469;-61
2021/05/12 14:18:54;;;;;;;7.53;3.90;;;;;;;28.59;23.94;99443.14;1714895;82;25554;-61
2021/05/12 14:21:20;;;;;;;8.08;4.00;;;;;;;28.51;24.19;99464.06;1718835;82;25618;-62
2021/05/12 14:23:47;;;;;;;5.33;4.22;;;;;;;28.40;24.73;99440.82;1712320;82;25581;-61
2021/05/12 14:26:14;;;;;;;6.33;4.03;;;;;;;28.44;24.96;99437.91;1718676;82;27385;-62
2021/05/12 14:28:51;;;;;;;9.13;4.00;;;;;;;28.44;24.85;99460.92;1728215;81;25396;-62
2021/05/12 14:31:09;;;;;;;4.30;3.50;;;;;;;28.38;25.09;99435.53;1750985;81;25480;-62
2021/05/12 14:33:36;;;;;;;7.92;3.70;;;;;;;28.42;24.69;99440.38;1756597;80;26365;-62
2021/05/12 14:36:03;;;;;;;7.40;3.15;;;;;;;28.38;24.75;99439.08;1764085;80;25408;-62
2021/05/12 14:38:32;;;;;;;7.80;3.95;;;;;;;28.37;25.02;99434.00;1761962;80;27302;-61
2021/05/12 14:40:58;;;;;;;6.92;4.28;;;;;;;28.41;24.99;99435.41;1762461;80;25703;-60
2021/05/12 14:43:25;;;;;;;6.95;3.90;;;;;;;28.49;25.39;99423.42;1764454;80;25483;-61
2021/05/12 14:45:51;;;;;;;9.00;4.25;;;;;;;28.48;25.28;99430.20;1762649;80;25611;-62
2021/05/12 14:48:21;;;;;;;11.18;4.80;;;;;;;28.35;25.38;99426.11;1762075;80;25353;-61
2021/05/12 14:50:49;;;;;;;9.85;4.35;;;;;;;28.24;25.70;99426.47;1755971;80;27890;-65
2021/05/12 14:53:19;;;;;;;11.03;4.40;;;;;;;28.16;25.58;99431.34;1763005;80;26029;-61
2021/05/12 15:01:20;;;;;;;12.47;4.72;;;;;;;28.04;25.51;99435.72;1762719;80;25456;-62
2021/05/12 15:04:01;;;;;;;9.08;4.35;;;;;;;27.93;25.99;99436.87;1758228;80;27304;-64
2021/05/12 15:06:26;;;;;;;9.40;4.33;;;;;;;27.87;26.23;99421.18;1760617;80;25478;-62
2021/05/12 15:08:50;;;;;;;9.93;4.37;;;;;;;27.86;26.18;99425.97;1756271;80;25491;-62
2021/05/12 15:11:16;;;;;;;9.53;4.30;;;;;;;27.78;26.45;99425.27;1763343;80;25774;-63
2021/05/12 15:13:43;;;;;;;6.78;5.10;;;;;;;27.74;26.61;99426.16;1761393;80;25471;-63
2021/05/12 15:16:12;;;;;;;7.22;5.17;;;;;;;27.69;26.70;99418.39;1763845;80;27447;-63
2021/05/12 15:18:39;;;;;;;9.60;5.80;;;;;;;27.64;26.80;99424.52;1763160;80;25467;-66
2021/05/12 15:21:06;;;;;;;10.90;5.83;;;;;;;27.52;27.02;99430.88;1756178;80;25573;-65
2021/05/12 15:23:34;;;;;;;10.18;5.55;;;;;;;27.34;27.55;99440.53;1756594;80;25669;-64
2021/05/12 15:26:01;;;;;;;9.65;6.45;;;;;;;27.16;27.93;99418.09;1756602;80;25573;-70
2021/05/12 15:28:31;;;;;;;8.53;6.33;;;;;;;27.08;28.51;99425.08;1759212;80;27548;-65
2021/05/12 15:30:58;;;;;;;11.70;7.00;;;;;;;26.95;28.84;99416.14;1762110;80;25506;-66
2021/05/12 15:33:24;;;;;;;12.07;6.67;;;;;;;26.79;28.49;99412.06;1757800;80;25725;-63
2021/05/12 15:35:52;;;;;;;13.40;6.75;;;;;;;26.62;29.03;99415.49;1734482;81;26547;-60
2021/05/12 15:38:19;;;;;;;9.28;6.70;;;;;;;26.49;29.15;99425.77;1732736;81;25451;-60
2021/05/12 15:40:46;;;;;;;12.30;6.53;;;;;;;26.38;29.33;99420.53;1730950;82;27439;-60
2021/05/12 15:43:13;;;;;;;8.75;6.08;;;;;;;26.28;29.50;99420.98;1734961;81;25512;-61
2021/05/12 15:45:41;;;;;;;9.08;7.28;;;;;;;26.22;29.66;99422.72;1734984;81;25526;-61
2021/05/12 15:48:14;;;;;;;11.80;7.65;;;;;;;26.17;29.46;99416.33;1730567;82;25666;-61
2021/05/12 15:50:42;;;;;;;14.30;7.80;;;;;;;26.09;29.92;99413.75;1731166;81;25465;-65
2021/05/12 15:53:08;;;;;;;10.98;7.65;;;;;;;26.01;29.85;99436.55;1729581;82;27436;-62
2021/05/12 15:55:37;;;;;;;11.25;8.10;;;;;;;25.89;29.97;99401.99;1729339;81;25495;-60
2021/05/12 15:58:04;;;;;;;15.55;8.53;;;;;;;25.75;29.63;99406.52;1726478;82;25500;-62
2021/05/12 16:00:31;;;;;;;12.53;8.05;;;;;;;25.63;29.88;99407.39;1691843;83;25657;-69
2021/05/12 16:02:58;;;;;;;9.05;7.75;;;;;;;25.56;30.06;99420.61;1704233;83;25500;-66
2021/05/12 16:05:28;;;;;;;9.68;8.68;;;;;;;25.48;30.16;99411.10;1701983;82;27862;-67
2021/05/12 16:07:54;;;;;;;9.98;8.40;;;;;;;25.42;30.19;99405.93;1704024;83;25938;-67
2021/05/12 16:10:21;;;;;;;11.38;9.08;;;;;;;25.37;30.66;99411.18;1704369;84;25551;-70
2021/05/12 16:12:47;;;;;;;12.55;8.85;;;;;;;25.33;30.25;99394.05;1703685;84;25481;-69
2021/05/12 16:15:14;;;;;;;9.78;7.87;;;;;;;25.26;30.38;99404.52;1704245;84;25496;-73
2021/05/12 16:17:41;;;;;;;13.50;8.55;;;;;;;25.21;30.64;99406.39;1703310;83;28049;-77
2021/05/12 16:20:09;;;;;;;11.22;9.05;;;;;;;25.16;30.20;99397.98;1700769;83;25388;-72
2021/05/12 16:22:36;;;;;;;10.65;7.75;;;;;;;25.12;30.18;99395.92;1699700;83;25892;-72
2021/05/12 16:25:03;;;;;;;10.78;8.38;;;;;;;25.06;30.22;99395.63;1703534;84;25622;-75
2021/05/12 16:27:29;;;;;;;10.28;8.83;;;;;;;25.05;30.48;99390.55;1695906;83;25439;-74
2021/05/12 16:29:55;;;;;;;13.43;9.05;;;;;;;25.01;30.57;99398.14;1703945;84;27393;-85
2021/05/12 16:32:22;;;;;;;15.05;8.85;;;;;;;24.94;30.47;99392.16;1703743;83;25409;-84
2021/05/12 16:34:50;;;;;;;12.68;9.13;;;;;;;24.89;30.68;99393.47;1681144;82;25509;-76
2021/05/12 16:37:18;;;;;;;13.77;8.27;;;;;;;24.79;30.84;99386.95;1723026;82;25611;-80
2021/05/12 16:39:45;;;;;;;14.10;8.55;;;;;;;24.75;31.10;99387.62;1713356;82;25415;-73
2021/05/12 16:42:13;;;;;;;13.25;9.23;;;;;;;24.68;31.33;99394.69;1710773;83;27344;-73
2021/05/12 16:44:39;;;;;;;12.70;8.33;;;;;;;24.64;31.38;99384.90;1725953;81;25571;-78
2021/05/12 16:47:06;;;;;;;15.53;8.83;;;;;;;24.60;31.92;99392.69;1727773;81;25505;-72
2021/05/12 16:49:36;;;;;;;11.05;7.97;;;;;;;24.55;32.05;99392.39;1731460;81;25736;-73
2021/05/12 16:52:01;;;;;;;12.00;8.00;;;;;;;24.51;32.09;99388.29;1735026;81;25555;-74
2021/05/12 16:54:27;;;;;;;13.03;8.65;;;;;;;24.51;32.60;99387.52;1734448;81;27416;-76
2021/05/12 16:56:54;;;;;;;13.65;8.68;;;;;;;24.47;32.76;99384.83;1727164;81;25631;-84
2021/05/12 16:59:20;;;;;;;11.85;8.73;;;;;;;24.45;32.78;99390.02;1721482;83;25565;-69
2021/05/12 17:01:46;;;;;;;14.60;8.53;;;;;;;24.43;32.86;99390.43;1733172;81;26158;-73
2021/05/12 17:04:14;;;;;;;11.30;7.70;;;;;;;24.42;33.16;99385.33;1729332;81;25479;-71
2021/05/12 17:06:40;;;;;;;13.10;8.00;;;;;;;24.41;33.21;99394.81;1730008;81;27332;-71
2021/05/12 17:09:09;;;;;;;13.00;7.72;;;;;;;24.35;33.51;99393.16;1732070;81;25494;-72
2021/05/12 17:11:47;;;;;;;10.85;7.33;;;;;;;24.29;33.72;99392.08;1731707;81;25590;-73
2021/05/12 17:14:05;;;;;;;12.90;7.20;;;;;;;24.24;33.98;99396.72;1732012;81;25569;-75
2021/05/12 17:16:32;;;;;;;8.85;7.03;;;;;;;24.14;33.98;99398.47;1705873;81;25598;-78
2021/05/12 17:18:58;;;;;;;10.63;7.05;;;;;;;24.04;34.17;99402.21;1731065;81;27457;-77
2021/05/12 17:21:25;;;;;;;12.37;7.95;;;;;;;23.95;34.35;99398.63;1745141;80;25710;-75
2021/05/12 17:23:51;;;;;;;13.10;7.78;;;;;;;23.88;34.45;99393.84;1754310;80;25506;-74
2021/05/12 17:26:18;;;;;;;12.15;8.08;;;;;;;23.80;34.75;99392.56;1739143;81;25568;-74
2021/05/12 17:28:46;;;;;;;19.27;8.25;;;;;;;23.72;35.00;99398.02;1714164;83;25527;-79
2021/05/12 17:31:18;;;;;;;10.53;8.00;;;;;;;23.64;35.63;99394.59;1730725;81;27487;-77
2021/05/12 17:33:44;;;;;;;11.93;8.28;;;;;;;23.57;36.17;99396.70;1711125;83;25491;-74
2021/05/12 17:36:11;;;;;;;13.05;7.42;;;;;;;23.49;36.51;99398.78;1737860;81;25586;-75
2021/05/12 17:38:37;;;;;;;11.18;7.08;;;;;;;23.41;36.92;99397.33;1724377;82;25762;-72